Latest Weather Observations for Bougainville Reef

IDQ60801

Issued at 7:05 pm EST Saturday 26 July 2014 (issued every 30 minutes, with the page automatically refreshed every 10 minutes)

About weather observations | Map of weather stations | Latest weather observations for QLD | Other Formats
Station Details ID: 200840 Name: BOUGAINVILLE REEF Lat: -15.49 Lon: 147.12 Height: 0.0 m
Data from the previous 72 hours. | See also: Recent months for locations in Queensland
Date/Time
EST
Temp
°C
App
Temp
°C
Dew
Point
Rel
Hum
%
Delta-T
°C
Wind Press
QNH
hPa
Press
MSL
hPa
Rain
since 9 am
mm
Dir
 
Spd
km/h
Gust
km/h
Spd
kts
Gust
kts
26/07:00pm 24.2 - - - - SSE 37 46 20 25 1019.0 1018.8 -
26/06:49pm 24.4 - - - - SSE 35 50 19 27 1018.9 - -
26/06:42pm 24.2 - - - - ESE 39 50 21 27 1018.8 - -
26/06:30pm 24.2 - - - - SE 37 52 20 28 1018.6 - -
26/06:16pm 24.2 - - - - E 46 54 25 29 1018.6 - -
26/06:12pm 24.2 - - - - SSE 32 50 17 27 1018.6 - -
26/06:00pm 24.3 - - - - E 39 50 21 27 1018.6 1018.5 -
26/05:53pm 24.0 - - - - SE 37 50 20 27 1018.6 - -
26/05:52pm 24.3 - - - - E 39 50 21 27 1018.6 - -
26/05:51pm 24.3 - - - - NE 39 50 21 27 1018.6 - -
26/05:48pm 24.2 - - - - E 39 50 21 27 1018.6 - -
26/05:30pm 24.4 - - - - SE 26 44 14 24 1018.7 - -
26/05:11pm 24.2 - - - - ESE 28 48 15 26 1018.5 - -
26/05:00pm 24.0 - - - - ESE 35 46 19 25 1018.5 1018.3 -
26/04:54pm 24.2 - - - - E 35 50 19 27 1018.4 - -
26/04:53pm 24.2 - - - - NE 37 50 20 27 1018.4 - -
26/04:52pm 24.1 - - - - ESE 37 50 20 27 1018.4 - -
26/04:46pm 24.3 - - - - ENE 33 50 18 27 1018.4 - -
26/04:43pm 24.1 - - - - NE 39 50 21 27 1018.4 - -
26/04:38pm 24.1 - - - - SE 33 50 18 27 1018.4 - -
26/04:36pm 24.2 - - - - ENE 39 50 21 27 1018.4 - -
26/04:30pm 24.1 - - - - SE 37 50 20 27 1018.3 - -
26/04:26pm 24.3 - - - - ENE 35 46 19 25 1018.4 - -
26/04:25pm 24.3 - - - - NE 37 52 20 28 1018.3 - -
26/04:00pm 24.1 - - - - SE 35 50 19 27 1018.1 1018.0 -
26/03:49pm 23.9 - - - - SE 35 54 19 29 1018.1 - -
26/03:30pm 24.0 - - - - SE 37 48 20 26 1018.0 - -
26/03:00pm 24.0 - - - - SE 41 50 22 27 1018.0 1017.8 -
26/02:42pm 23.9 - - - - SSE 35 52 19 28 1017.9 - -
26/02:36pm 23.9 - - - - ESE 41 52 22 28 1017.9 - -
26/02:35pm 24.0 - - - - ENE 43 52 23 28 1017.9 - -
26/02:30pm 23.9 - - - - SE 41 50 22 27 1017.9 - -
26/02:00pm 24.3 - - - - SE 39 50 21 27 1018.1 1018.2 -
26/01:55pm 24.1 - - - - ESE 37 50 20 27 1018.2 - -
26/01:30pm 24.1 - - - - SE 41 50 22 27 1018.4 - -
26/01:00pm 24.0 - - - - ESE 41 44 22 24 1018.6 1018.6 -
26/12:53pm 23.8 - - - - SSE 35 48 19 26 1018.7 - -
26/12:47pm 23.9 - - - - ESE 41 48 22 26 1018.8 - -
26/12:30pm 24.0 - - - - SSE 37 50 20 27 1018.8 - -
26/12:00pm 24.0 - - - - ESE 43 50 23 27 1019.2 1019.2 -
26/11:30am 24.0 - - - - SE 41 50 22 27 1019.4 - -
26/11:00am 24.0 - - - - SE 41 54 22 29 1019.7 1019.7 -
26/10:30am 23.8 - - - - SE 43 56 23 30 1019.9 - -
26/10:00am 24.3 - - - - ESE 44 56 24 30 1020.1 1020.0 -
26/09:30am 24.2 - - - - ESE 43 56 23 30 1020.0 - -
26/09:00am 24.2 - - - - SE 44 57 24 31 1019.8 1019.6 -
26/08:30am 24.4 - - - - SE 44 54 24 29 1019.7 - -
26/08:00am 24.1 - - - - SE 39 57 21 31 1019.4 1019.3 -
26/07:30am 24.1 - - - - SE 39 50 21 27 1019.4 - -
26/07:00am 23.8 - - - - ESE 43 50 23 27 1019.1 1018.9 -
26/06:30am 24.2 - - - - ESE 41 54 22 29 1018.7 - -
26/06:00am 24.2 - - - - ESE 44 54 24 29 1018.6 1018.6 -
26/05:30am 24.0 - - - - ESE 44 54 24 29 1018.4 - -
26/05:00am 24.2 - - - - ESE 39 52 21 28 1018.2 1018.1 -
26/04:30am 24.2 - - - - ESE 44 54 24 29 1018.1 - -
26/04:00am 24.1 - - - - SE 37 50 20 27 1018.1 1018.0 -
26/03:59am 24.0 - - - - SE 39 50 21 27 1018.1 - -
26/03:58am 24.3 - - - - E 39 50 21 27 1018.1 - -
26/03:57am 24.1 - - - - ENE 41 50 22 27 1018.1 - -
26/03:36am 24.1 - - - - SE 32 46 17 25 1018.1 - -
26/03:33am 23.9 - - - - ENE 39 48 21 26 1018.1 - -
26/03:30am 24.0 - - - - ESE 39 48 21 26 1018.1 - -
26/03:11am 24.0 - - - - ESE 37 46 20 25 1018.1 - -
26/03:09am 23.8 - - - - ENE 35 46 19 25 1018.2 - -
26/03:00am 24.2 - - - - ESE 35 50 19 27 1018.2 1018.1 -
26/02:57am 23.8 - - - - SE 37 50 20 27 1018.1 - -
26/02:53am 24.1 - - - - ENE 28 48 15 26 1018.2 - -
26/02:39am 24.0 - - - - SE 43 50 23 27 1018.2 - -
26/02:37am 24.1 - - - - ENE 43 50 23 27 1018.2 - -
26/02:30am 24.0 - - - - ESE 43 54 23 29 1018.3 - -
26/02:00am 24.1 - - - - ESE 39 44 21 24 1019.0 1019.0 -
26/01:30am 24.1 - - - - ESE 39 44 21 24 1019.4 - -
26/01:23am 24.1 - - - - ESE 37 46 20 25 1019.4 - -
26/01:14am 24.1 - - - - E 41 46 22 25 1019.4 - -
26/01:00am 23.9 - - - - ESE 39 50 21 27 1019.5 1019.5 -
26/12:30am 24.0 - - - - ESE 39 48 21 26 1019.7 - -
26/12:21am 23.9 - - - - ESE 43 48 23 26 1019.8 - -
26/12:00am 23.9 - - - - SE 39 46 21 25 1020.2 1020.1 -
 
Date/Time
EST
Temp
°C
App
Temp
°C
Dew
Point
Rel
Hum
%
Delta-T
°C
Wind Press
QNH
hPa
Press
MSL
hPa
Rain
since 9 am
mm
Dir
 
Spd
km/h
Gust
km/h
Spd
kts
Gust
kts
25/11:30pm 23.8 - - - - ESE 41 54 22 29 1020.5 - -
25/11:00pm 23.6 - - - - ESE 46 56 25 30 1020.4 1020.2 -
25/10:30pm 24.1 - - - - ESE 37 46 20 25 1020.5 - -
25/10:16pm 24.0 - - - - ESE 39 48 21 26 1020.6 - -
25/10:07pm 24.2 - - - - E 41 48 22 26 1020.6 - -
25/10:00pm 24.2 - - - - ESE 37 44 20 24 1020.5 1020.3 -
25/09:30pm 24.4 - - - - ESE 43 52 23 28 1020.4 - -
25/09:00pm 24.3 - - - - ESE 39 48 21 26 1020.2 1020.0 -
25/08:30pm 24.3 - - - - ESE 37 46 20 25 1019.9 - -
25/08:00pm 24.4 - - - - ESE 37 44 20 24 1019.6 1019.3 -
25/07:30pm 24.3 - - - - ESE 37 43 20 23 1019.1 - -
25/07:00pm 24.1 - - - - ESE 39 46 21 25 1018.5 1018.3 -
25/06:30pm 23.9 - - - - ESE 35 46 19 25 1018.3 - -
25/06:00pm 24.5 - - - - ESE 39 43 21 23 1018.0 1017.7 -
25/05:30pm 24.2 - - - - ESE 35 41 19 22 1017.7 - -
25/05:00pm 24.2 - - - - ESE 37 43 20 23 1017.7 1017.4 -
25/04:30pm 24.2 - - - - ESE 37 46 20 25 1017.3 - -
25/04:00pm 24.0 - - - - ESE 33 43 18 23 1017.3 1017.2 -
25/03:30pm 23.9 - - - - SE 28 37 15 20 1017.3 - -
25/03:00pm 23.1 - - - - SE 41 48 22 26 1017.3 1017.1 -
25/02:30pm 23.8 - - - - SE 35 46 19 25 1017.1 - -
25/02:00pm 24.5 - - - - ESE 33 39 18 21 1017.4 1017.5 -
25/01:30pm 24.3 - - - - ESE 37 44 20 24 1018.0 - -
25/01:00pm 24.4 - - - - ESE 43 50 23 27 1018.2 1018.2 -
25/12:30pm 24.6 - - - - ESE 41 52 22 28 1018.4 - -
25/12:00pm 24.3 - - - - ESE 37 44 20 24 1018.6 1018.7 -
25/11:30am 24.3 - - - - ESE 35 43 19 23 1018.8 - -
25/11:00am 24.2 - - - - ESE 37 52 20 28 1018.7 1018.7 -
25/10:30am 24.2 - - - - ESE 41 50 22 27 1018.9 - -
25/10:00am 24.7 - - - - ESE 30 39 16 21 1019.0 1019.0 -
25/09:30am 24.6 - - - - ESE 37 44 20 24 1019.2 - -
25/09:00am 24.5 - - - - ESE 44 50 24 27 1018.9 1018.8 -
25/08:30am 24.4 - - - - ESE 44 52 24 28 1018.7 - -
25/08:00am 24.2 - - - - ESE 44 50 24 27 1018.5 1018.3 -
25/07:30am 24.1 - - - - ESE 46 54 25 29 1018.1 - -
25/07:00am 24.2 - - - - ESE 44 52 24 28 1017.6 1017.4 -
25/06:30am 24.4 - - - - ESE 44 50 24 27 1017.1 - -
25/06:00am 24.5 - - - - ESE 41 46 22 25 1016.8 1016.7 -
25/05:30am 24.1 - - - - ESE 43 48 23 26 1016.7 - -
25/05:00am 24.2 - - - - ESE 39 43 21 23 1016.6 1016.3 -
25/04:30am 24.4 - - - - ESE 43 50 23 27 1016.2 - -
25/04:00am 24.1 - - - - ESE 37 48 20 26 1016.1 1016.0 -
25/03:30am 24.0 - - - - ESE 41 48 22 26 1016.2 - -
25/03:00am 24.3 - - - - ESE 50 54 27 29 1015.9 1015.8 -
25/02:30am 24.2 - - - - ESE 46 54 25 29 1016.1 - -
25/02:00am 24.1 - - - - ESE 43 50 23 27 1016.2 1016.1 -
25/01:30am 24.3 - - - - ESE 41 46 22 25 1016.5 - -
25/01:05am 24.0 - - - - ESE 44 48 24 26 1016.7 - -
25/01:00am 23.6 - - - - ESE 20 30 11 16 1017.0 1017.0 -
25/12:00am 22.3 - - - - ESE 39 39 21 21 1017.4 1017.3 -
 
Date/Time
EST
Temp
°C
App
Temp
°C
Dew
Point
Rel
Hum
%
Delta-T
°C
Wind Press
QNH
hPa
Press
MSL
hPa
Rain
since 9 am
mm
Dir
 
Spd
km/h
Gust
km/h
Spd
kts
Gust
kts
24/11:30pm 23.4 - - - - E 33 43 18 23 1017.3 - -
24/11:00pm 23.4 - - - - ESE 32 37 17 20 1017.8 1017.7 -
24/10:30pm 23.2 - - - - ESE 22 30 12 16 1017.9 - -
24/10:00pm 22.7 - - - - E 30 32 16 17 1018.0 1017.9 -
24/09:30pm 21.8 - - - - E 26 32 14 17 1018.0 - -
24/09:07pm 22.9 - - - - E 41 44 22 24 1017.7 - -
24/09:00pm 24.1 - - - - E 24 43 13 23 1017.6 1017.5 -
24/08:30pm 24.2 - - - - ESE 28 32 15 17 1017.5 - -
24/08:00pm 24.2 - - - - E 26 32 14 17 1017.2 1016.9 -
24/07:30pm 24.0 - - - - E 22 30 12 16 1016.8 - -
24/07:00pm 24.1 - - - - E 26 30 14 16 1016.4 1016.2 -
24/06:30pm 23.8 - - - - E 15 24 8 13 1016.3 - -
24/06:00pm 23.8 - - - - SE 17 22 9 12 1016.0 1015.8 -
24/05:30pm 23.7 - - - - ESE 20 28 11 15 1015.7 - -
24/05:00pm 23.9 - - - - SE 19 24 10 13 1015.5 1015.3 -
24/04:30pm 23.9 - - - - ESE 20 26 11 14 1015.2 - -
24/04:00pm 23.8 - - - - ESE 22 28 12 15 1015.0 1014.8 -
24/03:30pm 23.8 - - - - SE 20 26 11 14 1014.9 - -
24/03:00pm 23.8 - - - - ESE 22 30 12 16 1014.7 1014.7 -
24/02:30pm 23.9 - - - - ESE 24 32 13 17 1014.9 - -
24/02:00pm 23.8 - - - - ESE 28 33 15 18 1015.0 1015.0 -
24/01:30pm 24.0 - - - - ESE 28 37 15 20 1015.3 - -
24/01:00pm 23.8 - - - - ESE 30 32 16 17 1015.7 1015.9 -
24/12:30pm 23.9 - - - - ESE 30 35 16 19 1016.2 - -
24/12:00pm 23.9 - - - - ESE 35 39 19 21 1016.6 1016.6 -
24/11:30am 23.9 - - - - ESE 33 41 18 22 1016.9 - -
24/11:00am 23.8 - - - - ESE 35 44 19 24 1017.0 1016.9 -
24/10:30am 23.8 - - - - ESE 37 44 20 24 1017.0 - -
24/10:00am 23.7 - - - - ESE 41 44 22 24 1017.3 1017.1 -
24/09:30am 23.6 - - - - ESE 39 48 21 26 1017.2 - -
24/09:00am 23.7 - - - - ESE 37 48 20 26 1016.9 1016.6 -
24/08:30am 23.7 - - - - ESE 41 46 22 25 1016.2 - -
24/08:00am 23.5 - - - - ESE 41 48 22 26 1015.7 1015.3 -
24/07:30am 23.4 - - - - ESE 39 44 21 24 1015.4 - -
24/07:00am 23.3 - - - - ESE 39 48 21 26 1015.1 1014.9 -
24/06:30am 23.1 - - - - ESE 35 43 19 23 1014.9 - -
24/06:00am 23.1 - - - - ESE 39 46 21 25 1014.7 1014.5 -
24/05:30am 23.1 - - - - ESE 35 43 19 23 1014.5 - -
24/05:00am 23.2 - - - - SE 32 43 17 23 1014.5 1014.3 -
24/04:30am 23.3 - - - - ESE 35 43 19 23 1014.4 - -
24/04:00am 23.2 - - - - ESE 33 39 18 21 1014.6 1014.5 -
24/03:30am 23.2 - - - - ESE 33 43 18 23 1014.8 - -
24/03:00am 23.1 - - - - SE 30 43 16 23 1014.9 1014.9 -
24/02:30am 23.2 - - - - SE 32 43 17 23 1015.2 - -
24/02:00am 23.3 - - - - SE 32 43 17 23 1015.5 1015.5 -
24/01:30am 23.3 - - - - SE 33 41 18 22 1015.7 - -
24/01:00am 23.4 - - - - SE 35 43 19 23 1016.0 1016.0 -
24/12:30am 23.4 - - - - ESE 35 41 19 22 1016.2 - -
24/12:00am 23.6 - - - - SE 32 43 17 23 1016.2 1016.1 -
 
Date/Time
EST
Temp
°C
App
Temp
°C
Dew
Point
Rel
Hum
%
Delta-T
°C
Wind Press
QNH
hPa
Press
MSL
hPa
Rain
since 9 am
mm
Dir
 
Spd
km/h
Gust
km/h
Spd
kts
Gust
kts
23/11:30pm 23.5 - - - - SE 33 44 18 24 1016.3 - -
23/11:00pm 23.3 - - - - SE 33 43 18 23 1016.5 1016.5 -
23/10:30pm 23.5 - - - - SE 39 46 21 25 1016.5 - -
23/10:00pm 23.6 - - - - SE 37 52 20 28 1016.4 1016.3 -
23/09:30pm 23.4 - - - - SE 39 52 21 28 1016.4 - -
23/09:00pm 23.5 - - - - SE 37 52 20 28 1016.3 1016.1 -
23/08:30pm 23.2 - - - - SSE 32 43 17 23 1016.0 - -
23/08:00pm 22.9 - - - - SSE 30 44 16 24 1015.9 1015.7 -
23/07:30pm 22.5 - - - - SE 24 41 13 22 1015.6 - -

Other Formats:

Comma delimited format used in spreadsheet applications
http://www.bom.gov.au/fwo/IDQ60801/IDQ60801.95288.axf

JavaScript Object Notation format (JSON) in row-major order
http://www.bom.gov.au/fwo/IDQ60801/IDQ60801.95288.json